sensor_id;sensor_type;location;lat;lon;timestamp;pressure;altitude;pressure_sealevel;temperature;humidity
71621;BME280;59471;42.254;23.102;2023-02-18T00:00:53;96818.97;;;-0.31;72.74
71621;BME280;59471;42.254;23.102;2023-02-18T00:03:19;96822.34;;;-0.14;72.84
71621;BME280;59471;42.254;23.102;2023-02-18T00:05:45;96821.06;;;-0.07;71.74
71621;BME280;59471;42.254;23.102;2023-02-18T00:08:10;96822.31;;;-0.44;72.99
71621;BME280;59471;42.254;23.102;2023-02-18T00:10:36;96816.16;;;-0.42;73.04
71621;BME280;59471;42.254;23.102;2023-02-18T00:13:01;96818.16;;;-0.31;72.54
71621;BME280;59471;42.254;23.102;2023-02-18T00:15:27;96822.56;;;-0.49;72.72
71621;BME280;59471;42.254;23.102;2023-02-18T00:17:52;96816.84;;;-0.54;73.18
71621;BME280;59471;42.254;23.102;2023-02-18T00:20:18;96820.16;;;-0.52;73.19
71621;BME280;59471;42.254;23.102;2023-02-18T00:22:43;96813.69;;;-0.43;73.30
71621;BME280;59471;42.254;23.102;2023-02-18T00:25:09;96811.78;;;-0.40;72.89
71621;BME280;59471;42.254;23.102;2023-02-18T00:27:34;96800.38;;;-0.66;73.75
71621;BME280;59471;42.254;23.102;2023-02-18T00:30:00;96803.94;;;-0.68;74.58
71621;BME280;59471;42.254;23.102;2023-02-18T00:32:25;96807.56;;;-0.57;73.56
71621;BME280;59471;42.254;23.102;2023-02-18T00:34:51;96790.72;;;-0.62;73.92
71621;BME280;59471;42.254;23.102;2023-02-18T00:37:17;96795.47;;;-1.02;75.04
71621;BME280;59471;42.254;23.102;2023-02-18T00:39:42;96788.91;;;-1.08;75.58
71621;BME280;59471;42.254;23.102;2023-02-18T00:42:08;96780.38;;;-0.93;74.60
71621;BME280;59471;42.254;23.102;2023-02-18T00:44:34;96779.69;;;-0.64;74.26
71621;BME280;59471;42.254;23.102;2023-02-18T00:46:59;96783.88;;;-0.48;73.65
71621;BME280;59471;42.254;23.102;2023-02-18T00:49:25;96771.53;;;-0.41;72.97
71621;BME280;59471;42.254;23.102;2023-02-18T00:51:50;96762.16;;;-0.58;72.76
71621;BME280;59471;42.254;23.102;2023-02-18T00:54:16;96762.97;;;-0.87;74.10
71621;BME280;59471;42.254;23.102;2023-02-18T00:56:41;96763.84;;;-0.88;74.30
71621;BME280;59471;42.254;23.102;2023-02-18T00:59:07;96753.59;;;-1.04;74.65
71621;BME280;59471;42.254;23.102;2023-02-18T01:01:32;96748.22;;;-1.15;75.16
71621;BME280;59471;42.254;23.102;2023-02-18T01:03:59;96745.88;;;-1.20;75.22
71621;BME280;59471;42.254;23.102;2023-02-18T01:06:24;96749.34;;;-0.89;73.91
71621;BME280;59471;42.254;23.102;2023-02-18T01:08:50;96750.59;;;-0.81;73.41
71621;BME280;59471;42.254;23.102;2023-02-18T01:11:16;96741.81;;;-1.08;74.42
71621;BME280;59471;42.254;23.102;2023-02-18T01:13:42;96742.88;;;-0.81;74.15
71621;BME280;59471;42.254;23.102;2023-02-18T01:16:08;96741.66;;;-1.05;74.62
71621;BME280;59471;42.254;23.102;2023-02-18T01:18:34;96744.38;;;-1.08;75.38
71621;BME280;59471;42.254;23.102;2023-02-18T01:21:00;96741.75;;;-0.91;74.02
71621;BME280;59471;42.254;23.102;2023-02-18T01:23:26;96745.38;;;-0.95;74.56
71621;BME280;59471;42.254;23.102;2023-02-18T01:25:53;96736.19;;;-0.99;74.32
71621;BME280;59471;42.254;23.102;2023-02-18T01:28:18;96731.94;;;-0.84;74.48
71621;BME280;59471;42.254;23.102;2023-02-18T01:30:45;96731.13;;;-0.85;74.59
71621;BME280;59471;42.254;23.102;2023-02-18T01:33:11;96728.63;;;-1.02;74.72
71621;BME280;59471;42.254;23.102;2023-02-18T01:35:38;96732.47;;;-1.09;74.40
71621;BME280;59471;42.254;23.102;2023-02-18T01:38:04;96740.72;;;-1.20;74.41
71621;BME280;59471;42.254;23.102;2023-02-18T01:40:30;96737.19;;;-1.18;74.72
71621;BME280;59471;42.254;23.102;2023-02-18T01:42:56;96733.94;;;-1.05;74.18
71621;BME280;59471;42.254;23.102;2023-02-18T01:48:11;96738.84;;;-1.17;75.03
71621;BME280;59471;42.254;23.102;2023-02-18T01:50:46;96749.03;;;-1.15;74.56
71621;BME280;59471;42.254;23.102;2023-02-18T01:53:17;96746.19;;;-1.10;74.78
71621;BME280;59471;42.254;23.102;2023-02-18T01:55:45;96745.22;;;-1.40;75.01
71621;BME280;59471;42.254;23.102;2023-02-18T01:58:12;96747.03;;;-1.57;75.74
71621;BME280;59471;42.254;23.102;2023-02-18T02:00:39;96746.47;;;-1.80;77.06
71621;BME280;59471;42.254;23.102;2023-02-18T02:03:04;96752.84;;;-1.54;76.53
71621;BME280;59471;42.254;23.102;2023-02-18T02:05:31;96757.03;;;-1.69;76.15
71621;BME280;59471;42.254;23.102;2023-02-18T02:07:59;96762.78;;;-1.48;75.81
71621;BME280;59471;42.254;23.102;2023-02-18T02:13:41;96758.31;;;-1.28;74.93
71621;BME280;59471;42.254;23.102;2023-02-18T02:16:21;96759.13;;;-1.44;75.15
71621;BME280;59471;42.254;23.102;2023-02-18T02:27:59;96769.47;;;-1.45;75.45
71621;BME280;59471;42.254;23.102;2023-02-18T02:36:48;96760.22;;;-1.32;74.65
71621;BME280;59471;42.254;23.102;2023-02-18T02:45:24;96763.19;;;-1.40;75.09
71621;BME280;59471;42.254;23.102;2023-02-18T02:51:10;96766.91;;;-1.45;75.02
71621;BME280;59471;42.254;23.102;2023-02-18T02:53:40;96766.50;;;-1.53;75.09
71621;BME280;59471;42.254;23.102;2023-02-18T02:56:22;96761.94;;;-1.48;75.59
71621;BME280;59471;42.254;23.102;2023-02-18T02:59:10;96764.13;;;-1.74;76.71
71621;BME280;59471;42.254;23.102;2023-02-18T03:10:47;96754.66;;;-1.24;76.79
71621;BME280;59471;42.254;23.102;2023-02-18T03:13:32;96742.09;;;-1.29;76.88
71621;BME280;59471;42.254;23.102;2023-02-18T03:22:10;96748.69;;;-1.56;77.41
71621;BME280;59471;42.254;23.102;2023-02-18T03:24:50;96752.50;;;-1.48;77.60
71621;BME280;59471;42.254;23.102;2023-02-18T03:27:21;96741.72;;;-1.54;78.04
71621;BME280;59471;42.254;23.102;2023-02-18T03:30:05;96742.34;;;-1.82;77.65
71621;BME280;59471;42.254;23.102;2023-02-18T03:32:36;96740.28;;;-1.76;77.37
71621;BME280;59471;42.254;23.102;2023-02-18T03:35:07;96738.91;;;-1.50;76.91
71621;BME280;59471;42.254;23.102;2023-02-18T03:37:39;96752.03;;;-1.72;76.60
71621;BME280;59471;42.254;23.102;2023-02-18T03:40:08;96755.63;;;-1.58;77.14
71621;BME280;59471;42.254;23.102;2023-02-18T03:42:34;96750.91;;;-1.66;78.14
71621;BME280;59471;42.254;23.102;2023-02-18T03:45:00;96749.97;;;-1.65;77.54
71621;BME280;59471;42.254;23.102;2023-02-18T03:47:26;96756.56;;;-1.77;76.66
71621;BME280;59471;42.254;23.102;2023-02-18T03:49:51;96765.25;;;-2.13;78.50
71621;BME280;59471;42.254;23.102;2023-02-18T03:52:17;96770.19;;;-1.75;77.17
71621;BME280;59471;42.254;23.102;2023-02-18T03:54:42;96771.59;;;-1.69;76.46
71621;BME280;59471;42.254;23.102;2023-02-18T03:57:08;96785.69;;;-1.94;77.33
71621;BME280;59471;42.254;23.102;2023-02-18T03:59:34;96796.63;;;-1.90;77.24
71621;BME280;59471;42.254;23.102;2023-02-18T04:01:59;96792.94;;;-1.84;77.34
71621;BME280;59471;42.254;23.102;2023-02-18T04:04:25;96793.84;;;-2.55;79.70
71621;BME280;59471;42.254;23.102;2023-02-18T04:06:51;96801.47;;;-2.19;79.16
71621;BME280;59471;42.254;23.102;2023-02-18T04:09:16;96800.72;;;-2.03;78.51
71621;BME280;59471;42.254;23.102;2023-02-18T04:11:42;96803.91;;;-1.98;78.37
71621;BME280;59471;42.254;23.102;2023-02-18T04:14:07;96808.72;;;-1.92;78.09
71621;BME280;59471;42.254;23.102;2023-02-18T04:16:33;96806.44;;;-1.81;77.59
71621;BME280;59471;42.254;23.102;2023-02-18T04:18:58;96806.13;;;-1.75;77.02
71621;BME280;59471;42.254;23.102;2023-02-18T04:21:24;96807.88;;;-1.93;77.74
71621;BME280;59471;42.254;23.102;2023-02-18T04:23:50;96821.34;;;-2.22;78.41
71621;BME280;59471;42.254;23.102;2023-02-18T04:26:15;96816.72;;;-2.16;79.91
71621;BME280;59471;42.254;23.102;2023-02-18T04:28:41;96820.94;;;-2.15;80.35
71621;BME280;59471;42.254;23.102;2023-02-18T04:31:06;96821.09;;;-2.00;79.74
71621;BME280;59471;42.254;23.102;2023-02-18T04:33:32;96809.94;;;-1.82;78.47
71621;BME280;59471;42.254;23.102;2023-02-18T04:35:57;96801.91;;;-1.93;78.11
71621;BME280;59471;42.254;23.102;2023-02-18T04:38:23;96805.66;;;-1.66;77.74
71621;BME280;59471;42.254;23.102;2023-02-18T04:40:48;96808.09;;;-1.80;77.33
71621;BME280;59471;42.254;23.102;2023-02-18T04:43:14;96802.31;;;-1.68;76.87
71621;BME280;59471;42.254;23.102;2023-02-18T04:45:39;96810.34;;;-1.74;76.83
71621;BME280;59471;42.254;23.102;2023-02-18T04:48:05;96810.84;;;-2.00;77.78
71621;BME280;59471;42.254;23.102;2023-02-18T04:50:30;96807.22;;;-2.14;77.71
71621;BME280;59471;42.254;23.102;2023-02-18T04:52:56;96805.56;;;-1.97;77.81
71621;BME280;59471;42.254;23.102;2023-02-18T04:55:21;96801.19;;;-2.13;77.86
71621;BME280;59471;42.254;23.102;2023-02-18T04:57:47;96797.75;;;-1.78;77.43
71621;BME280;59471;42.254;23.102;2023-02-18T05:00:18;96800.69;;;-1.69;76.45
71621;BME280;59471;42.254;23.102;2023-02-18T05:02:45;96795.97;;;-1.94;77.21
71621;BME280;59471;42.254;23.102;2023-02-18T05:05:12;96799.22;;;-2.07;78.33
71621;BME280;59471;42.254;23.102;2023-02-18T05:07:38;96798.78;;;-1.98;78.51
71621;BME280;59471;42.254;23.102;2023-02-18T05:10:04;96800.56;;;-2.35;80.57
71621;BME280;59471;42.254;23.102;2023-02-18T05:12:30;96808.03;;;-2.30;80.72
71621;BME280;59471;42.254;23.102;2023-02-18T05:14:56;96804.66;;;-2.14;79.77
71621;BME280;59471;42.254;23.102;2023-02-18T05:17:21;96806.91;;;-1.90;79.04
71621;BME280;59471;42.254;23.102;2023-02-18T05:19:47;96791.63;;;-1.76;78.53
71621;BME280;59471;42.254;23.102;2023-02-18T05:22:13;96798.88;;;-1.84;78.02
71621;BME280;59471;42.254;23.102;2023-02-18T05:24:38;96804.94;;;-1.85;78.50
71621;BME280;59471;42.254;23.102;2023-02-18T05:27:04;96803.25;;;-1.86;78.29
71621;BME280;59471;42.254;23.102;2023-02-18T05:29:29;96802.22;;;-1.99;78.72
71621;BME280;59471;42.254;23.102;2023-02-18T05:31:55;96803.59;;;-1.92;78.89
71621;BME280;59471;42.254;23.102;2023-02-18T05:34:20;96795.13;;;-2.12;79.15
71621;BME280;59471;42.254;23.102;2023-02-18T05:36:46;96798.13;;;-1.86;78.71
71621;BME280;59471;42.254;23.102;2023-02-18T05:39:11;96797.66;;;-1.77;78.29
71621;BME280;59471;42.254;23.102;2023-02-18T05:41:37;96802.78;;;-1.77;77.42
71621;BME280;59471;42.254;23.102;2023-02-18T05:44:02;96799.81;;;-1.85;78.29
71621;BME280;59471;42.254;23.102;2023-02-18T05:46:46;96800.28;;;-1.94;78.72
71621;BME280;59471;42.254;23.102;2023-02-18T05:49:12;96807.88;;;-1.93;78.81
71621;BME280;59471;42.254;23.102;2023-02-18T05:51:38;96813.84;;;-1.75;78.36
71621;BME280;59471;42.254;23.102;2023-02-18T05:54:03;96822.44;;;-1.93;78.43
71621;BME280;59471;42.254;23.102;2023-02-18T05:56:29;96836.28;;;-1.78;78.37
71621;BME280;59471;42.254;23.102;2023-02-18T05:58:55;96823.69;;;-1.67;79.06
71621;BME280;59471;42.254;23.102;2023-02-18T06:01:20;96822.53;;;-1.44;77.86
71621;BME280;59471;42.254;23.102;2023-02-18T06:03:46;96829.00;;;-1.37;76.95
71621;BME280;59471;42.254;23.102;2023-02-18T06:06:11;96832.84;;;-1.61;78.33
71621;BME280;59471;42.254;23.102;2023-02-18T06:08:37;96839.75;;;-1.79;79.71
71621;BME280;59471;42.254;23.102;2023-02-18T06:11:03;96830.22;;;-1.60;79.34
71621;BME280;59471;42.254;23.102;2023-02-18T06:13:28;96834.06;;;-1.51;79.26
71621;BME280;59471;42.254;23.102;2023-02-18T06:15:54;96832.84;;;-1.61;79.92
71621;BME280;59471;42.254;23.102;2023-02-18T06:18:20;96832.91;;;-1.30;79.77
71621;BME280;59471;42.254;23.102;2023-02-18T06:20:47;96833.13;;;-1.01;78.23
71621;BME280;59471;42.254;23.102;2023-02-18T06:23:13;96820.19;;;-1.15;78.42
71621;BME280;59471;42.254;23.102;2023-02-18T06:25:40;96833.44;;;-1.07;79.30
71621;BME280;59471;42.254;23.102;2023-02-18T06:28:06;96833.59;;;-1.10;79.12
71621;BME280;59471;42.254;23.102;2023-02-18T06:30:31;96837.78;;;-0.92;78.45
71621;BME280;59471;42.254;23.102;2023-02-18T06:32:57;96837.53;;;-0.72;77.99
71621;BME280;59471;42.254;23.102;2023-02-18T06:35:22;96838.94;;;-0.66;77.96
71621;BME280;59471;42.254;23.102;2023-02-18T06:37:48;96828.81;;;-0.53;78.04
71621;BME280;59471;42.254;23.102;2023-02-18T06:40:13;96846.38;;;-0.30;77.77
71621;BME280;59471;42.254;23.102;2023-02-18T06:42:39;96842.69;;;-0.26;76.81
71621;BME280;59471;42.254;23.102;2023-02-18T06:45:05;96837.69;;;-0.43;77.32
71621;BME280;59471;42.254;23.102;2023-02-18T06:47:31;96836.75;;;-0.42;77.71
71621;BME280;59471;42.254;23.102;2023-02-18T06:49:57;96839.28;;;-0.72;77.77
71621;BME280;59471;42.254;23.102;2023-02-18T06:52:23;96843.00;;;-0.78;79.28
71621;BME280;59471;42.254;23.102;2023-02-18T06:54:48;96836.78;;;-0.74;78.28
71621;BME280;59471;42.254;23.102;2023-02-18T06:57:14;96827.41;;;-0.59;77.48
71621;BME280;59471;42.254;23.102;2023-02-18T06:59:39;96827.78;;;-0.35;77.26
71621;BME280;59471;42.254;23.102;2023-02-18T07:02:05;96821.50;;;-1.08;79.17
71621;BME280;59471;42.254;23.102;2023-02-18T07:04:31;96833.44;;;-1.07;80.20
71621;BME280;59471;42.254;23.102;2023-02-18T07:06:56;96831.31;;;-0.99;78.52
71621;BME280;59471;42.254;23.102;2023-02-18T07:09:22;96831.97;;;-0.80;78.01
71621;BME280;59471;42.254;23.102;2023-02-18T07:11:47;96837.91;;;-0.48;77.07
71621;BME280;59471;42.254;23.102;2023-02-18T07:14:13;96843.69;;;-0.12;75.84
71621;BME280;59471;42.254;23.102;2023-02-18T07:16:38;96839.66;;;-0.02;75.78
71621;BME280;59471;42.254;23.102;2023-02-18T07:19:04;96833.28;;;0.19;75.57
71621;BME280;59471;42.254;23.102;2023-02-18T07:21:29;96836.06;;;0.31;74.88
71621;BME280;59471;42.254;23.102;2023-02-18T07:23:55;96832.13;;;0.54;74.95
71621;BME280;59471;42.254;23.102;2023-02-18T07:26:20;96836.34;;;0.69;74.06
71621;BME280;59471;42.254;23.102;2023-02-18T07:28:46;96830.91;;;0.59;73.21
71621;BME280;59471;42.254;23.102;2023-02-18T07:31:11;96840.88;;;0.65;72.96
71621;BME280;59471;42.254;23.102;2023-02-18T07:33:37;96844.09;;;0.69;72.48
71621;BME280;59471;42.254;23.102;2023-02-18T07:36:03;96846.19;;;0.62;73.84
71621;BME280;59471;42.254;23.102;2023-02-18T07:38:29;96844.91;;;0.84;73.55
71621;BME280;59471;42.254;23.102;2023-02-18T07:40:56;96831.59;;;0.91;73.63
71621;BME280;59471;42.254;23.102;2023-02-18T07:43:22;96834.13;;;1.06;73.65
71621;BME280;59471;42.254;23.102;2023-02-18T07:45:47;96835.28;;;1.29;73.44
71621;BME280;59471;42.254;23.102;2023-02-18T07:48:13;96829.78;;;1.06;74.13
71621;BME280;59471;42.254;23.102;2023-02-18T07:50:42;96833.94;;;1.09;73.73
71621;BME280;59471;42.254;23.102;2023-02-18T07:53:10;96829.78;;;1.06;74.14
71621;BME280;59471;42.254;23.102;2023-02-18T07:55:37;96822.28;;;1.30;73.90
71621;BME280;59471;42.254;23.102;2023-02-18T07:58:23;96819.25;;;1.51;72.46
71621;BME280;59471;42.254;23.102;2023-02-18T08:00:54;96822.16;;;1.46;72.32
71621;BME280;59471;42.254;23.102;2023-02-18T08:03:22;96827.50;;;1.43;72.88
71621;BME280;59471;42.254;23.102;2023-02-18T08:05:53;96822.91;;;1.48;72.46
71621;BME280;59471;42.254;23.102;2023-02-18T08:08:22;96819.91;;;1.54;72.24
71621;BME280;59471;42.254;23.102;2023-02-18T08:10:51;96813.63;;;1.58;71.01
71621;BME280;59471;42.254;23.102;2023-02-18T08:13:18;96815.69;;;1.93;70.86
71621;BME280;59471;42.254;23.102;2023-02-18T08:15:44;96807.78;;;2.22;70.85
71621;BME280;59471;42.254;23.102;2023-02-18T08:18:21;96806.56;;;2.40;69.04
71621;BME280;59471;42.254;23.102;2023-02-18T08:20:48;96796.09;;;2.54;68.91
71621;BME280;59471;42.254;23.102;2023-02-18T08:23:15;96787.50;;;2.54;68.41
71621;BME280;59471;42.254;23.102;2023-02-18T08:25:51;96783.47;;;2.63;68.96
71621;BME280;59471;42.254;23.102;2023-02-18T08:28:19;96777.97;;;2.67;67.70
71621;BME280;59471;42.254;23.102;2023-02-18T08:30:46;96771.25;;;2.77;67.30
71621;BME280;59471;42.254;23.102;2023-02-18T08:33:13;96774.09;;;2.98;66.43
71621;BME280;59471;42.254;23.102;2023-02-18T08:35:40;96761.31;;;2.84;66.55
71621;BME280;59471;42.254;23.102;2023-02-18T08:38:06;96784.66;;;2.95;65.45
71621;BME280;59471;42.254;23.102;2023-02-18T08:40:32;96779.19;;;3.24;64.81
71621;BME280;59471;42.254;23.102;2023-02-18T08:42:57;96788.25;;;3.42;63.38
71621;BME280;59471;42.254;23.102;2023-02-18T08:45:23;96801.25;;;3.54;62.75
71621;BME280;59471;42.254;23.102;2023-02-18T08:47:48;96805.34;;;3.69;63.41
71621;BME280;59471;42.254;23.102;2023-02-18T08:50:14;96794.03;;;3.70;63.43
71621;BME280;59471;42.254;23.102;2023-02-18T08:52:40;96811.66;;;4.00;63.05
71621;BME280;59471;42.254;23.102;2023-02-18T08:55:06;96803.13;;;4.11;62.64
71621;BME280;59471;42.254;23.102;2023-02-18T08:57:32;96792.91;;;4.32;62.41
71621;BME280;59471;42.254;23.102;2023-02-18T08:59:57;96787.41;;;4.48;62.38
71621;BME280;59471;42.254;23.102;2023-02-18T09:02:23;96786.22;;;4.74;61.74
71621;BME280;59471;42.254;23.102;2023-02-18T09:04:48;96785.25;;;4.98;60.55
71621;BME280;59471;42.254;23.102;2023-02-18T09:07:14;96785.84;;;5.24;59.41
71621;BME280;59471;42.254;23.102;2023-02-18T09:09:40;96796.09;;;5.25;59.87
71621;BME280;59471;42.254;23.102;2023-02-18T09:12:06;96792.59;;;5.15;60.00
71621;BME280;59471;42.254;23.102;2023-02-18T09:14:33;96785.50;;;5.17;59.27
71621;BME280;59471;42.254;23.102;2023-02-18T09:16:58;96800.22;;;5.39;59.86
71621;BME280;59471;42.254;23.102;2023-02-18T09:19:24;96794.88;;;5.52;58.44
71621;BME280;59471;42.254;23.102;2023-02-18T09:21:50;96783.78;;;5.39;58.68
71621;BME280;59471;42.254;23.102;2023-02-18T09:24:18;96765.56;;;5.18;60.22
71621;BME280;59471;42.254;23.102;2023-02-18T09:26:44;96787.34;;;5.38;59.32
71621;BME280;59471;42.254;23.102;2023-02-18T09:29:10;96785.22;;;5.43;59.55
71621;BME280;59471;42.254;23.102;2023-02-18T09:31:35;96773.41;;;5.39;58.11
71621;BME280;59471;42.254;23.102;2023-02-18T09:34:02;96777.38;;;5.54;57.71
71621;BME280;59471;42.254;23.102;2023-02-18T09:36:28;96760.63;;;5.47;58.93
71621;BME280;59471;42.254;23.102;2023-02-18T09:38:54;96764.03;;;5.58;57.50
71621;BME280;59471;42.254;23.102;2023-02-18T09:44:45;96750.53;;;5.86;57.93
71621;BME280;59471;42.254;23.102;2023-02-18T09:47:05;96746.28;;;5.96;56.52
71621;BME280;59471;42.254;23.102;2023-02-18T09:49:39;96746.75;;;5.90;57.23
71621;BME280;59471;42.254;23.102;2023-02-18T09:52:17;96739.44;;;6.16;55.99
71621;BME280;59471;42.254;23.102;2023-02-18T09:54:45;96738.91;;;6.22;55.53
71621;BME280;59471;42.254;23.102;2023-02-18T10:00:10;96728.59;;;6.62;55.79
71621;BME280;59471;42.254;23.102;2023-02-18T10:02:40;96729.72;;;6.79;55.36
71621;BME280;59471;42.254;23.102;2023-02-18T10:05:13;96721.81;;;6.90;54.90
71621;BME280;59471;42.254;23.102;2023-02-18T10:07:40;96720.81;;;7.22;53.42
71621;BME280;59471;42.254;23.102;2023-02-18T10:13:17;96711.22;;;7.42;51.76
71621;BME280;59471;42.254;23.102;2023-02-18T10:15:44;96705.47;;;7.58;52.34
71621;BME280;59471;42.254;23.102;2023-02-18T10:18:32;96709.00;;;7.86;51.08
71621;BME280;59471;42.254;23.102;2023-02-18T10:21:06;96704.31;;;7.99;50.82
71621;BME280;59471;42.254;23.102;2023-02-18T10:23:38;96696.91;;;8.04;50.11
71621;BME280;59471;42.254;23.102;2023-02-18T10:26:11;96690.56;;;8.17;49.47
71621;BME280;59471;42.254;23.102;2023-02-18T10:28:40;96684.41;;;8.55;48.88
71621;BME280;59471;42.254;23.102;2023-02-18T10:31:10;96680.56;;;8.02;48.79
71621;BME280;59471;42.254;23.102;2023-02-18T10:39:29;96663.34;;;8.39;48.47
71621;BME280;59471;42.254;23.102;2023-02-18T10:44:39;96654.50;;;8.77;48.00
71621;BME280;59471;42.254;23.102;2023-02-18T10:50:09;96651.00;;;8.86;47.69
71621;BME280;59471;42.254;23.102;2023-02-18T10:52:42;96646.41;;;9.16;47.79
71621;BME280;59471;42.254;23.102;2023-02-18T10:55:13;96631.97;;;9.47;47.00
71621;BME280;59471;42.254;23.102;2023-02-18T10:57:48;96625.03;;;9.82;45.22
71621;BME280;59471;42.254;23.102;2023-02-18T11:00:34;96612.69;;;9.92;45.78
71621;BME280;59471;42.254;23.102;2023-02-18T11:03:19;96611.03;;;9.91;44.02
71621;BME280;59471;42.254;23.102;2023-02-18T11:05:51;96596.13;;;10.18;44.49
71621;BME280;59471;42.254;23.102;2023-02-18T11:08:23;96598.22;;;10.32;44.16
71621;BME280;59471;42.254;23.102;2023-02-18T11:10:50;96595.50;;;10.24;44.66
71621;BME280;59471;42.254;23.102;2023-02-18T11:13:25;96586.09;;;10.31;45.82
71621;BME280;59471;42.254;23.102;2023-02-18T11:20:58;96578.00;;;10.59;44.00
71621;BME280;59471;42.254;23.102;2023-02-18T11:23:28;96570.72;;;10.36;44.80
71621;BME280;59471;42.254;23.102;2023-02-18T11:31:18;96578.19;;;10.65;43.40
71621;BME280;59471;42.254;23.102;2023-02-18T11:33:55;96577.38;;;10.65;44.04
71621;BME280;59471;42.254;23.102;2023-02-18T11:36:33;96570.66;;;10.71;44.81
71621;BME280;59471;42.254;23.102;2023-02-18T11:39:03;96561.03;;;10.87;44.10
71621;BME280;59471;42.254;23.102;2023-02-18T11:41:37;96572.84;;;11.00;42.68
71621;BME280;59471;42.254;23.102;2023-02-18T11:44:52;96549.91;;;10.94;43.22
71621;BME280;59471;42.254;23.102;2023-02-18T11:47:02;96558.13;;;11.15;42.70
71621;BME280;59471;42.254;23.102;2023-02-18T11:49:31;96555.84;;;11.36;41.92
71621;BME280;59471;42.254;23.102;2023-02-18T11:52:25;96540.72;;;11.63;40.11
71621;BME280;59471;42.254;23.102;2023-02-18T11:57:36;96542.66;;;11.77;39.93
71621;BME280;59471;42.254;23.102;2023-02-18T12:00:42;96525.94;;;11.87;40.13
71621;BME280;59471;42.254;23.102;2023-02-18T12:05:57;96506.91;;;11.85;40.78
71621;BME280;59471;42.254;23.102;2023-02-18T12:08:30;96504.28;;;11.93;39.27
71621;BME280;59471;42.254;23.102;2023-02-18T12:11:03;96512.41;;;12.14;39.12
71621;BME280;59471;42.254;23.102;2023-02-18T12:13:36;96500.94;;;12.07;40.45
71621;BME280;59471;42.254;23.102;2023-02-18T12:16:44;96499.88;;;12.24;41.54
71621;BME280;59471;42.254;23.102;2023-02-18T12:42:07;96471.09;;;13.46;38.69
71621;BME280;59471;42.254;23.102;2023-02-18T12:47:57;96466.63;;;13.32;38.62
71621;BME280;59471;42.254;23.102;2023-02-18T12:51:03;96460.78;;;13.59;38.69
71621;BME280;59471;42.254;23.102;2023-02-18T13:02:17;96451.59;;;14.36;37.09
71621;BME280;59471;42.254;23.102;2023-02-18T13:10:43;96435.03;;;14.57;38.20
71621;BME280;59471;42.254;23.102;2023-02-18T13:13:36;96432.13;;;14.52;35.23
71621;BME280;59471;42.254;23.102;2023-02-18T13:16:15;96425.38;;;14.49;35.03
71621;BME280;59471;42.254;23.102;2023-02-18T13:18:48;96421.25;;;14.40;34.77
71621;BME280;59471;42.254;23.102;2023-02-18T13:21:37;96425.47;;;14.34;34.77
71621;BME280;59471;42.254;23.102;2023-02-18T13:24:13;96424.69;;;14.19;33.83
71621;BME280;59471;42.254;23.102;2023-02-18T13:26:49;96425.72;;;14.25;36.04
71621;BME280;59471;42.254;23.102;2023-02-18T13:32:20;96422.34;;;14.31;34.14
71621;BME280;59471;42.254;23.102;2023-02-18T13:35:24;96427.31;;;14.41;34.30
71621;BME280;59471;42.254;23.102;2023-02-18T13:38:30;96423.53;;;14.65;35.17
71621;BME280;59471;42.254;23.102;2023-02-18T13:41:04;96416.00;;;14.62;35.03
71621;BME280;59471;42.254;23.102;2023-02-18T13:43:34;96421.56;;;14.67;35.13
71621;BME280;59471;42.254;23.102;2023-02-18T13:48:36;96411.38;;;14.64;35.42
71621;BME280;59471;42.254;23.102;2023-02-18T13:51:06;96407.34;;;14.68;35.72
71621;BME280;59471;42.254;23.102;2023-02-18T13:53:36;96403.09;;;14.67;36.28
71621;BME280;59471;42.254;23.102;2023-02-18T13:56:09;96388.91;;;14.68;34.51
71621;BME280;59471;42.254;23.102;2023-02-18T13:58:50;96393.75;;;14.49;34.41
71621;BME280;59471;42.254;23.102;2023-02-18T14:01:37;96400.53;;;14.37;34.46
71621;BME280;59471;42.254;23.102;2023-02-18T14:18:08;96387.78;;;13.83;36.29
71621;BME280;59471;42.254;23.102;2023-02-18T14:25:56;96391.25;;;13.68;36.30
71621;BME280;59471;42.254;23.102;2023-02-18T14:28:38;96385.28;;;13.45;37.34
71621;BME280;59471;42.254;23.102;2023-02-18T14:33:40;96374.47;;;13.25;37.54
71621;BME280;59471;42.254;23.102;2023-02-18T14:41:42;96384.31;;;13.08;37.19
71621;BME280;59471;42.254;23.102;2023-02-18T14:49:39;96388.00;;;12.84;38.69
71621;BME280;59471;42.254;23.102;2023-02-18T14:52:21;96384.09;;;12.95;38.23
71621;BME280;59471;42.254;23.102;2023-02-18T14:54:55;96382.28;;;12.81;38.32
71621;BME280;59471;42.254;23.102;2023-02-18T14:57:50;96377.72;;;12.74;38.54
71621;BME280;59471;42.254;23.102;2023-02-18T15:00:21;96378.63;;;12.82;38.16
71621;BME280;59471;42.254;23.102;2023-02-18T15:02:51;96371.41;;;12.84;38.54
71621;BME280;59471;42.254;23.102;2023-02-18T15:05:24;96380.97;;;12.76;38.74
71621;BME280;59471;42.254;23.102;2023-02-18T15:08:05;96379.59;;;12.66;37.76
71621;BME280;59471;42.254;23.102;2023-02-18T15:13:16;96371.91;;;12.64;39.18
71621;BME280;59471;42.254;23.102;2023-02-18T15:15:42;96374.25;;;12.59;39.00
71621;BME280;59471;42.254;23.102;2023-02-18T15:18:41;96371.59;;;12.59;39.49
71621;BME280;59471;42.254;23.102;2023-02-18T15:21:20;96367.72;;;12.55;39.26
71621;BME280;59471;42.254;23.102;2023-02-18T15:23:49;96373.06;;;12.62;38.71
71621;BME280;59471;42.254;23.102;2023-02-18T15:26:15;96379.50;;;12.59;39.02
71621;BME280;59471;42.254;23.102;2023-02-18T15:28:53;96377.69;;;12.60;38.92
71621;BME280;59471;42.254;23.102;2023-02-18T15:31:25;96383.88;;;12.44;39.81
71621;BME280;59471;42.254;23.102;2023-02-18T15:33:51;96382.13;;;12.36;39.28
71621;BME280;59471;42.254;23.102;2023-02-18T15:36:17;96375.19;;;12.20;39.48
71621;BME280;59471;42.254;23.102;2023-02-18T15:38:43;96384.72;;;12.13;41.21
71621;BME280;59471;42.254;23.102;2023-02-18T15:41:19;96379.56;;;11.97;40.79
71621;BME280;59471;42.254;23.102;2023-02-18T15:44:01;96376.00;;;11.81;41.38
71621;BME280;59471;42.254;23.102;2023-02-18T15:46:29;96376.41;;;11.70;42.73
71621;BME280;59471;42.254;23.102;2023-02-18T15:48:56;96368.41;;;11.64;41.97